createdAt,value
2022-10-04T00:00:49.157Z,90.86
2022-10-04T00:03:30.866Z,91.07
2022-10-04T00:06:00.851Z,90.63
2022-10-04T00:08:44.483Z,89.54
2022-10-04T00:11:19.151Z,89.55
2022-10-04T00:13:54.013Z,90.00
2022-10-04T00:16:40.752Z,90.62
2022-10-04T00:19:15.984Z,90.35
2022-10-04T00:21:57.692Z,90.92
2022-10-04T00:24:32.369Z,90.55
2022-10-04T00:27:19.008Z,90.28
2022-10-04T00:30:09.399Z,90.46
2022-10-04T00:32:39.409Z,90.65
2022-10-04T00:35:24.524Z,90.73
2022-10-04T00:38:14.858Z,91.15
2022-10-04T00:41:08.728Z,91.02
2022-10-04T00:43:42.608Z,91.03
2022-10-04T00:46:18.551Z,91.07
2022-10-04T00:49:06.730Z,90.89
2022-10-04T00:51:41.632Z,90.70
2022-10-04T00:54:32.461Z,90.90
2022-10-04T00:57:07.465Z,90.94
2022-10-04T00:59:44.446Z,91.04
2022-10-04T01:02:16.472Z,90.23
2022-10-04T01:04:52.536Z,90.72
2022-10-04T01:07:26.969Z,90.74
2022-10-04T01:10:01.356Z,91.03
2022-10-04T01:12:36.519Z,91.01
2022-10-04T01:15:14.220Z,90.83
2022-10-04T01:17:40.608Z,91.18
2022-10-04T01:20:34.497Z,91.11
2022-10-04T01:23:03.573Z,90.76
2022-10-04T01:25:50.259Z,91.63
2022-10-04T01:28:16.912Z,90.65
2022-10-04T01:30:43.966Z,90.82
2022-10-04T01:33:12.434Z,91.04
2022-10-04T01:35:39.072Z,90.82
2022-10-04T01:40:57.203Z,91.64
2022-10-04T01:43:31.786Z,91.70
2022-10-04T01:46:09.642Z,91.47
2022-10-04T01:48:37.661Z,92.15
2022-10-04T01:51:19.155Z,91.09
2022-10-04T01:53:54.427Z,90.87
2022-10-04T01:56:28.535Z,90.84
2022-10-04T01:59:01.974Z,90.72
2022-10-04T02:01:50.409Z,90.95
2022-10-04T02:04:27.188Z,91.75
2022-10-04T02:06:55.510Z,91.23
2022-10-04T02:09:43.646Z,91.42
2022-10-04T02:12:16.191Z,91.12
2022-10-04T02:14:52.623Z,91.74
2022-10-04T02:17:23.211Z,91.22
2022-10-04T02:19:50.469Z,90.99
2022-10-04T02:22:18.278Z,91.44
2022-10-04T02:24:48.282Z,91.56
2022-10-04T02:27:15.743Z,91.95
2022-10-04T02:29:42.691Z,91.24
2022-10-04T02:32:29.224Z,91.74
2022-10-04T02:34:57.043Z,91.17
2022-10-04T02:37:26.787Z,91.80
2022-10-04T02:40:07.627Z,92.14
2022-10-04T02:42:34.553Z,90.82
2022-10-04T02:45:13.620Z,91.32
2022-10-04T02:48:06.090Z,91.55
2022-10-04T02:50:44.211Z,91.71
2022-10-04T02:53:50.134Z,91.48
2022-10-04T02:56:18.005Z,90.94
2022-10-04T02:58:44.662Z,90.74
2022-10-04T03:01:26.501Z,90.73
2022-10-04T03:03:55.971Z,90.81
2022-10-04T03:06:26.125Z,90.67
2022-10-04T03:09:02.820Z,91.24
2022-10-04T03:11:33.967Z,90.84
2022-10-04T03:14:05.215Z,90.91
2022-10-04T03:16:39.352Z,91.20
2022-10-04T03:19:06.580Z,91.28
2022-10-04T03:21:33.944Z,90.81
2022-10-04T03:24:03.379Z,90.54
2022-10-04T03:26:37.520Z,91.29
2022-10-04T03:29:10.153Z,90.83
2022-10-04T03:32:04.250Z,91.02
2022-10-04T03:34:36.546Z,90.40
2022-10-04T03:37:06.060Z,90.82
2022-10-04T03:39:43.560Z,91.63
2022-10-04T03:42:20.299Z,91.96
2022-10-04T03:44:49.250Z,92.66
2022-10-04T03:47:33.774Z,92.51
2022-10-04T03:50:04.992Z,91.82
2022-10-04T03:52:32.731Z,90.91
2022-10-04T03:55:03.096Z,90.74
2022-10-04T03:57:30.819Z,91.30
2022-10-04T03:59:58.924Z,91.82
2022-10-04T04:02:46.448Z,91.96
2022-10-04T04:05:29.461Z,91.85
2022-10-04T04:08:04.404Z,92.56
2022-10-04T04:10:35.766Z,92.50
2022-10-04T04:13:10.930Z,91.86
2022-10-04T04:15:38.018Z,91.82
2022-10-04T04:18:10.903Z,92.67
2022-10-04T04:20:38.490Z,93.14
2022-10-04T04:23:13.940Z,92.01
2022-10-04T04:25:43.954Z,92.55
2022-10-04T04:28:33.385Z,92.32
2022-10-04T04:31:04.484Z,92.93
2022-10-04T04:33:47.188Z,92.73
2022-10-04T04:36:16.948Z,92.33
2022-10-04T04:39:16.136Z,92.04
2022-10-04T04:41:45.784Z,91.77
2022-10-04T04:44:19.397Z,91.35
2022-10-04T04:46:47.570Z,90.90
2022-10-04T04:49:17.911Z,90.52
2022-10-04T04:51:51.298Z,91.01
2022-10-04T04:54:22.028Z,90.87
2022-10-04T04:56:52.880Z,90.86
2022-10-04T04:59:22.378Z,91.59
2022-10-04T05:01:50.205Z,91.48
2022-10-04T05:04:20.838Z,91.26
2022-10-04T05:07:16.207Z,91.83
2022-10-04T05:09:42.528Z,91.72
2022-10-04T05:12:15.982Z,90.97
2022-10-04T05:14:49.339Z,91.95
2022-10-04T05:17:24.068Z,91.46
2022-10-04T05:19:55.859Z,91.56
2022-10-04T05:22:24.896Z,91.22
2022-10-04T05:24:59.943Z,91.37
2022-10-04T05:27:42.641Z,90.26
2022-10-04T05:30:09.594Z,88.67
2022-10-04T05:32:55.614Z,89.45
2022-10-04T05:35:23.438Z,89.99
2022-10-04T05:38:02.491Z,90.24
2022-10-04T05:40:50.713Z,90.82
2022-10-04T05:43:41.406Z,90.80
2022-10-04T05:46:26.879Z,91.24
2022-10-04T05:49:01.870Z,90.53
2022-10-04T05:51:30.719Z,90.66
2022-10-04T05:54:00.977Z,89.11
2022-10-04T05:56:30.138Z,89.91
2022-10-04T05:59:09.572Z,89.99
2022-10-04T06:02:03.344Z,90.56
2022-10-04T06:04:45.364Z,90.73
2022-10-04T06:07:38.088Z,90.55
2022-10-04T06:10:26.013Z,90.83
2022-10-04T06:13:09.598Z,88.21
2022-10-04T06:15:51.433Z,88.33
2022-10-04T06:18:23.587Z,87.02
2022-10-04T06:21:05.939Z,88.00
2022-10-04T06:23:41.838Z,88.70
2022-10-04T06:26:13.776Z,89.60
2022-10-04T06:28:48.074Z,89.90
2022-10-04T06:31:24.514Z,89.26
2022-10-04T06:34:24.621Z,89.76
2022-10-04T06:37:17.291Z,90.19
2022-10-04T06:40:20.678Z,89.61
2022-10-04T06:42:48.008Z,89.56
2022-10-04T06:45:42.501Z,89.38
2022-10-04T06:48:27.371Z,89.14
2022-10-04T06:51:09.188Z,89.30
2022-10-04T06:54:06.088Z,89.80
2022-10-04T06:56:47.301Z,89.21
2022-10-04T06:59:36.160Z,88.77
2022-10-04T07:02:14.102Z,89.38
2022-10-04T07:05:11.514Z,88.38
2022-10-04T07:07:41.949Z,89.02
2022-10-04T07:10:08.262Z,87.95
2022-10-04T07:12:39.132Z,88.32
2022-10-04T07:15:18.662Z,88.91
2022-10-04T07:17:48.013Z,88.15
2022-10-04T07:20:22.562Z,88.29
2022-10-04T07:22:57.543Z,88.40
2022-10-04T07:25:33.985Z,87.78
2022-10-04T07:28:33.357Z,87.92
2022-10-04T07:31:14.730Z,87.41
2022-10-04T07:33:52.195Z,85.16
2022-10-04T07:36:45.282Z,85.99
2022-10-04T07:39:20.937Z,85.48
2022-10-04T07:41:50.272Z,85.82
2022-10-04T07:44:45.436Z,87.14
2022-10-04T07:47:20.706Z,86.01
2022-10-04T07:49:50.872Z,85.15
2022-10-04T07:52:29.246Z,85.67
2022-10-04T07:55:02.104Z,86.35
2022-10-04T07:57:41.637Z,85.43
2022-10-04T08:00:13.552Z,84.87
2022-10-04T08:03:09.571Z,86.45
2022-10-04T08:05:45.576Z,85.57
2022-10-04T08:08:34.505Z,85.78
2022-10-04T08:11:23.655Z,86.02
2022-10-04T08:14:17.320Z,85.58
2022-10-04T08:17:15.775Z,85.68
2022-10-04T08:20:02.773Z,85.78
2022-10-04T08:23:07.047Z,86.78
2022-10-04T08:26:15.032Z,86.50
2022-10-04T08:29:12.406Z,86.54
2022-10-04T08:31:46.296Z,84.67
2022-10-04T08:34:28.977Z,84.64
2022-10-04T08:37:30.664Z,84.01
2022-10-04T08:40:33.224Z,83.27
2022-10-04T08:43:33.987Z,82.47
2022-10-04T08:46:26.021Z,81.75
2022-10-04T08:49:13.584Z,81.88
2022-10-04T08:51:58.444Z,82.21
2022-10-04T08:54:57.023Z,82.69
2022-10-04T08:57:43.867Z,83.18
2022-10-04T09:00:20.848Z,82.49
2022-10-04T09:03:06.089Z,82.63
2022-10-04T09:05:50.378Z,81.83
2022-10-04T09:08:47.854Z,82.45
2022-10-04T09:11:34.527Z,82.19
2022-10-04T09:14:31.671Z,81.26
2022-10-04T09:17:22.314Z,82.03
2022-10-04T09:20:36.759Z,81.08
2022-10-04T09:23:33.585Z,80.36
2022-10-04T09:26:37.360Z,79.12
2022-10-04T09:29:33.488Z,78.81
2022-10-04T09:32:05.912Z,78.09
2022-10-04T09:35:03.850Z,77.56
2022-10-04T09:38:06.489Z,76.92
2022-10-04T09:41:08.432Z,77.16
2022-10-04T09:43:46.651Z,75.35
2022-10-04T09:46:37.525Z,75.96
2022-10-04T09:49:36.703Z,73.79
2022-10-04T09:52:18.167Z,73.90
2022-10-04T09:55:13.406Z,74.27
2022-10-04T09:58:07.600Z,72.09
2022-10-04T10:00:50.358Z,71.52
2022-10-04T10:03:37.954Z,71.94
2022-10-04T10:06:34.651Z,70.58
2022-10-04T10:10:07.307Z,69.35
2022-10-04T10:13:31.996Z,68.02
2022-10-04T10:16:19.959Z,68.23
2022-10-04T10:19:28.312Z,66.17
2022-10-04T10:22:32.247Z,61.50
2022-10-04T10:25:07.735Z,62.79
2022-10-04T10:27:57.233Z,63.79
2022-10-04T10:30:35.672Z,63.37
2022-10-04T10:33:38.177Z,62.97
2022-10-04T10:36:21.327Z,62.91
2022-10-04T10:39:22.440Z,63.55
2022-10-04T10:42:14.535Z,62.41
2022-10-04T10:44:41.497Z,60.69
2022-10-04T10:47:50.815Z,60.30
2022-10-04T10:50:26.141Z,57.75
2022-10-04T10:53:29.920Z,55.55
2022-10-04T10:56:30.501Z,53.39
2022-10-04T10:59:25.256Z,51.94
2022-10-04T11:02:18.117Z,50.39
2022-10-04T11:04:54.153Z,47.89
2022-10-04T11:07:50.750Z,48.04
2022-10-04T11:10:41.987Z,46.63
2022-10-04T11:13:28.040Z,51.92
2022-10-04T11:16:25.069Z,52.32
2022-10-04T11:19:34.719Z,51.09
2022-10-04T11:22:18.981Z,49.53
2022-10-04T11:25:15.986Z,46.80
2022-10-04T11:28:02.337Z,44.23
2022-10-04T11:31:10.009Z,45.53
2022-10-04T11:33:58.177Z,46.11
2022-10-04T11:36:47.586Z,49.23
2022-10-04T11:39:30.283Z,47.25
2022-10-04T11:42:23.128Z,47.54
2022-10-04T11:45:23.056Z,47.55
2022-10-04T11:48:43.258Z,48.96
2022-10-04T11:51:22.525Z,51.20
2022-10-04T11:54:10.229Z,52.68
2022-10-04T11:57:25.995Z,50.26
2022-10-04T12:00:20.871Z,51.28
2022-10-04T12:03:44.273Z,47.72
2022-10-04T12:06:33.704Z,43.76
2022-10-04T12:09:27.658Z,42.68
2022-10-04T12:12:30.887Z,41.30
2022-10-04T12:15:04.116Z,39.38
2022-10-04T12:18:05.167Z,38.90
2022-10-04T12:20:51.175Z,36.92
2022-10-04T12:23:20.206Z,36.53
2022-10-04T12:26:07.172Z,36.97
2022-10-04T12:29:10.236Z,37.89
2022-10-04T12:31:53.249Z,35.24
2022-10-04T12:34:41.377Z,33.63
2022-10-04T12:37:16.924Z,31.63
2022-10-04T12:40:06.873Z,30.25
2022-10-04T12:42:47.159Z,30.47
2022-10-04T12:45:42.444Z,27.21
2022-10-04T12:48:22.912Z,26.70
2022-10-04T12:51:01.381Z,24.55
2022-10-04T12:53:42.855Z,23.44
2022-10-04T12:56:32.012Z,25.62
2022-10-04T12:59:35.293Z,24.79
2022-10-04T13:02:12.688Z,27.11
2022-10-04T13:04:49.350Z,29.19
2022-10-04T13:07:21.651Z,30.38
2022-10-04T13:10:19.244Z,28.88
2022-10-04T13:13:28.243Z,30.45
2022-10-04T13:19:16.557Z,27.84
2022-10-04T13:21:52.831Z,29.99
2022-10-04T13:24:31.026Z,30.05
2022-10-04T13:27:13.974Z,26.92
2022-10-04T13:30:06.647Z,23.62
2022-10-04T13:32:48.412Z,23.23
2022-10-04T13:35:21.937Z,22.21
2022-10-04T13:38:29.235Z,22.25
2022-10-04T13:41:08.504Z,24.12
2022-10-04T13:43:49.443Z,23.92
2022-10-04T13:46:27.950Z,22.90
2022-10-04T13:48:57.352Z,23.89
2022-10-04T13:52:15.439Z,24.92
2022-10-04T13:55:29.616Z,26.32
2022-10-04T13:58:10.946Z,25.90
2022-10-04T14:01:05.231Z,25.77
2022-10-04T14:03:49.058Z,27.29
2022-10-04T14:06:37.137Z,29.14
2022-10-04T14:09:15.504Z,33.77
2022-10-04T14:12:33.798Z,32.53
2022-10-04T14:15:27.740Z,30.91
2022-10-04T14:18:15.955Z,31.02
2022-10-04T14:21:19.166Z,30.26
2022-10-04T14:24:36.789Z,31.34
2022-10-04T14:27:39.783Z,36.22
2022-10-04T14:30:12.486Z,38.50
2022-10-04T14:32:51.904Z,39.94
2022-10-04T14:35:27.577Z,40.92
2022-10-04T14:38:13.000Z,42.17
2022-10-04T14:41:12.158Z,43.32
2022-10-04T14:44:12.826Z,44.95
2022-10-04T14:46:57.096Z,41.55
2022-10-04T14:50:00.710Z,42.14
2022-10-04T14:52:52.567Z,44.39
2022-10-04T14:55:36.150Z,46.66
2022-10-04T14:58:11.959Z,46.51
2022-10-04T15:01:03.653Z,46.62
2022-10-04T15:03:36.113Z,47.70
2022-10-04T15:06:12.019Z,47.87
2022-10-04T15:09:12.344Z,48.76
2022-10-04T15:12:25.640Z,49.56
2022-10-04T15:15:02.655Z,51.46
2022-10-04T15:17:37.691Z,51.58
2022-10-04T15:20:24.788Z,53.46
2022-10-04T15:22:54.149Z,53.42
2022-10-04T15:25:39.653Z,53.72
2022-10-04T15:28:12.138Z,53.67
2022-10-04T15:30:56.692Z,54.92
2022-10-04T15:33:48.779Z,55.63
2022-10-04T15:36:37.188Z,56.70
2022-10-04T15:39:21.500Z,56.76
2022-10-04T15:42:07.068Z,56.98
2022-10-04T15:45:04.663Z,57.99
2022-10-04T15:47:49.288Z,58.40
2022-10-04T15:50:29.255Z,58.69
2022-10-04T15:53:20.194Z,58.67
2022-10-04T15:56:12.128Z,59.50
2022-10-04T15:59:18.997Z,59.93
2022-10-04T16:02:03.102Z,60.06
2022-10-04T16:04:40.239Z,60.54
2022-10-04T16:07:06.537Z,61.80
2022-10-04T16:09:40.380Z,62.46
2022-10-04T16:12:20.004Z,62.78
2022-10-04T16:14:58.850Z,62.17
2022-10-04T16:17:43.990Z,62.87
2022-10-04T16:20:40.530Z,64.25
2022-10-04T16:23:44.067Z,64.95
2022-10-04T16:26:19.408Z,64.97
2022-10-04T16:29:00.680Z,65.53
2022-10-04T16:31:46.227Z,66.48
2022-10-04T16:34:45.257Z,66.43
2022-10-04T16:37:23.784Z,66.83
2022-10-04T16:40:00.739Z,67.10
2022-10-04T16:42:45.389Z,67.02
2022-10-04T16:45:14.667Z,67.36
2022-10-04T16:47:56.468Z,67.75
2022-10-04T16:51:01.637Z,68.18
2022-10-04T16:53:46.610Z,68.23
2022-10-04T16:56:24.088Z,68.39
2022-10-04T16:58:56.499Z,68.62
2022-10-04T17:01:22.973Z,68.82
2022-10-04T17:04:04.474Z,69.70
2022-10-04T17:06:49.668Z,69.67
2022-10-04T17:09:35.395Z,69.84
2022-10-04T17:12:17.567Z,70.12
2022-10-04T17:14:55.226Z,70.87
2022-10-04T17:17:46.638Z,71.21
2022-10-04T17:20:13.070Z,70.94
2022-10-04T17:23:03.942Z,71.03
2022-10-04T17:25:48.455Z,71.68
2022-10-04T17:28:31.579Z,72.03
2022-10-04T17:31:09.028Z,72.35
2022-10-04T17:34:07.749Z,71.62
2022-10-04T17:36:54.927Z,71.99
2022-10-04T17:39:34.526Z,71.82
2022-10-04T17:42:13.250Z,72.45
2022-10-04T17:44:45.461Z,73.23
2022-10-04T17:47:54.971Z,73.55
2022-10-04T17:50:48.757Z,74.17
2022-10-04T17:53:39.019Z,73.31
2022-10-04T17:56:07.502Z,74.11
2022-10-04T17:58:52.268Z,74.14
2022-10-04T18:01:55.932Z,75.22
2022-10-04T18:04:30.483Z,74.74
2022-10-04T18:07:21.354Z,74.85
2022-10-04T18:09:55.898Z,75.29
2022-10-04T18:12:28.570Z,74.71
2022-10-04T18:15:06.000Z,74.92
2022-10-04T18:17:42.681Z,75.10
2022-10-04T18:20:08.970Z,75.24
2022-10-04T18:22:47.082Z,76.11
2022-10-04T18:25:14.046Z,77.01
2022-10-04T18:28:06.874Z,76.46
2022-10-04T18:30:48.950Z,77.81
2022-10-04T18:33:19.598Z,77.04
2022-10-04T18:36:05.162Z,77.32
2022-10-04T18:38:34.424Z,76.77
2022-10-04T18:41:13.020Z,76.79
2022-10-04T18:43:51.515Z,76.82
2022-10-04T18:46:24.888Z,77.11
2022-10-04T18:48:56.318Z,77.71
2022-10-04T18:51:26.097Z,76.98
2022-10-04T18:54:06.343Z,77.08
2022-10-04T18:56:52.773Z,79.24
2022-10-04T19:00:01.034Z,80.40
2022-10-04T19:03:04.684Z,80.39
2022-10-04T19:05:57.159Z,80.94
2022-10-04T19:08:47.926Z,80.81
2022-10-04T19:11:26.634Z,80.63
2022-10-04T19:14:17.875Z,80.38
2022-10-04T19:17:05.363Z,80.73
2022-10-04T19:19:39.919Z,80.81
2022-10-04T19:22:35.000Z,81.46
2022-10-04T19:25:17.096Z,81.67
2022-10-04T19:27:57.199Z,81.10
2022-10-04T19:30:41.643Z,81.26
2022-10-04T19:33:29.570Z,80.58
2022-10-04T19:36:24.316Z,81.61
2022-10-04T19:39:12.534Z,82.22
2022-10-04T19:41:56.594Z,82.73
2022-10-04T19:44:35.479Z,82.70
2022-10-04T19:47:16.190Z,83.20
2022-10-04T19:50:01.992Z,83.64
2022-10-04T19:52:35.634Z,84.88
2022-10-04T19:55:17.536Z,85.08
2022-10-04T19:58:15.660Z,84.30
2022-10-04T20:00:42.050Z,83.94
2022-10-04T20:03:15.071Z,83.98
2022-10-04T20:05:47.254Z,83.63
2022-10-04T20:08:17.155Z,84.25
2022-10-04T20:10:44.141Z,84.34
2022-10-04T20:13:10.726Z,84.19
2022-10-04T20:15:37.711Z,84.00
2022-10-04T20:18:31.741Z,84.62
2022-10-04T20:20:59.953Z,85.15
2022-10-04T20:23:38.716Z,85.38
2022-10-04T20:26:08.814Z,85.05
2022-10-04T20:28:41.703Z,84.87
2022-10-04T20:31:10.461Z,84.71
2022-10-04T20:33:38.815Z,84.91
2022-10-04T20:36:31.394Z,85.07
2022-10-04T20:38:59.611Z,85.16
2022-10-04T20:41:28.806Z,84.78
2022-10-04T20:44:03.901Z,85.10
2022-10-04T20:46:39.793Z,84.63
2022-10-04T20:49:16.027Z,84.46
2022-10-04T20:51:49.731Z,85.66
2022-10-04T20:54:20.880Z,85.98
2022-10-04T20:56:49.926Z,86.17
2022-10-04T20:59:18.223Z,85.98
2022-10-04T21:02:01.623Z,85.76
2022-10-04T21:04:32.399Z,85.02
2022-10-04T21:07:05.709Z,85.61
2022-10-04T21:09:34.092Z,85.77
2022-10-04T21:12:01.711Z,85.98
2022-10-04T21:14:27.971Z,86.13
2022-10-04T21:17:01.414Z,86.17
2022-10-04T21:19:44.419Z,85.73
2022-10-04T21:22:31.977Z,86.41
2022-10-04T21:25:25.802Z,86.13
2022-10-04T21:27:53.190Z,86.87
2022-10-04T21:30:19.729Z,86.95
2022-10-04T21:32:46.367Z,87.79
2022-10-04T21:35:13.358Z,87.34
2022-10-04T21:37:40.043Z,87.30
2022-10-04T21:40:07.428Z,87.86
2022-10-04T21:42:33.920Z,87.86
2022-10-04T21:45:00.391Z,87.09
2022-10-04T21:47:26.742Z,88.06
2022-10-04T21:49:53.857Z,87.77
2022-10-04T21:52:20.725Z,88.13
2022-10-04T21:54:47.266Z,88.15
2022-10-04T21:57:13.633Z,87.88
2022-10-04T21:59:40.015Z,87.06
2022-10-04T22:02:07.699Z,87.08
2022-10-04T22:04:34.646Z,87.09
2022-10-04T22:07:01.134Z,87.30
2022-10-04T22:09:27.540Z,86.81
2022-10-04T22:11:53.927Z,86.96
2022-10-04T22:14:20.234Z,86.69
2022-10-04T22:16:46.886Z,87.88
2022-10-04T22:19:13.428Z,87.45
2022-10-04T22:21:39.798Z,87.32
2022-10-04T22:24:16.275Z,87.72
2022-10-04T22:26:42.734Z,87.33
2022-10-04T22:29:13.481Z,86.86
2022-10-04T22:31:43.917Z,88.62
2022-10-04T22:34:19.325Z,88.58
2022-10-04T22:36:47.703Z,89.06
2022-10-04T22:39:17.477Z,88.96
2022-10-04T22:41:59.634Z,88.65
2022-10-04T22:44:36.343Z,89.04
2022-10-04T22:47:04.623Z,88.91
2022-10-04T22:49:34.337Z,88.70
2022-10-04T22:52:03.955Z,88.16
2022-10-04T22:54:35.548Z,88.63
2022-10-04T22:57:02.224Z,89.15
2022-10-04T22:59:37.459Z,89.00
2022-10-04T23:02:10.683Z,88.54
2022-10-04T23:04:37.177Z,89.25
2022-10-04T23:07:03.634Z,89.25
2022-10-04T23:09:29.972Z,89.31
2022-10-04T23:11:56.306Z,89.29
2022-10-04T23:14:22.617Z,89.29
2022-10-04T23:16:49.514Z,89.75
2022-10-04T23:19:19.960Z,89.48
2022-10-04T23:21:48.607Z,89.68
2022-10-04T23:24:20.607Z,89.82
2022-10-04T23:26:55.131Z,89.48
2022-10-04T23:29:24.726Z,89.99
2022-10-04T23:31:52.366Z,89.44
2022-10-04T23:34:25.713Z,89.83
2022-10-04T23:36:52.359Z,89.77
2022-10-04T23:39:24.949Z,89.87
2022-10-04T23:41:53.632Z,90.22
2022-10-04T23:44:22.124Z,90.46
2022-10-04T23:46:48.783Z,90.67
2022-10-04T23:49:20.204Z,90.70
2022-10-04T23:51:48.021Z,91.31
2022-10-04T23:54:20.010Z,91.44
2022-10-04T23:56:47.212Z,91.50
2022-10-04T23:59:19.328Z,91.08
